Time;durP1;ratioP1;P1;durP2;ratioP2;P2;SDS_P1;SDS_P2;PMS_P1;PMS_P2;Temp;Humidity;BMP_temperature;BMP_pressure;BME280_temperature;BME280_humidity;BME280_pressure;Samples;Min_cycle;Max_cycle;Signal;HPM_P1;HPM_P2
2024/04/16 00:02:19;;;;;;;;;;;6.40;99.90;;;;;;5326555;26;19937;-79
2024/04/16 00:04:44;;;;;;;;;;;6.40;99.90;;;;;;5297028;26;19937;-79
2024/04/16 00:07:10;;;;;;;;;;;6.50;99.90;;;;;;5290315;26;20576;-79
2024/04/16 00:09:36;;;;;;;;;;;6.50;99.90;;;;;;5323468;26;19939;-78
2024/04/16 00:12:01;;;;;;;;;;;6.50;99.90;;;;;;5347306;26;20420;-79
2024/04/16 00:14:27;;;;;;;;;;;6.50;99.90;;;;;;5332124;26;20400;-79
2024/04/16 00:16:53;;;;;;;;;;;6.60;99.90;;;;;;5290826;26;20235;-79
2024/04/16 00:19:18;;;;;;;;;;;6.60;99.90;;;;;;5318136;26;19997;-79
2024/04/16 00:21:47;;;;;;;;;;;6.70;99.90;;;;;;5297080;26;19936;-79
2024/04/16 00:24:12;;;;;;;;;;;6.60;99.90;;;;;;5296332;26;19939;-79
2024/04/16 00:26:39;;;;;;;;;;;6.70;99.90;;;;;;5352867;26;20712;-79
2024/04/16 00:29:04;;;;;;;;;;;6.60;99.90;;;;;;5335101;26;20665;-78
2024/04/16 00:31:30;;;;;;;;;;;6.60;99.90;;;;;;5299724;26;19938;-79
2024/04/16 00:33:56;;;;;;;;;;;6.70;99.90;;;;;;5328258;26;19930;-79
2024/04/16 00:36:21;;;;;;;;;;;6.60;99.90;;;;;;5318593;26;19958;-79
2024/04/16 00:38:47;;;;;;;;;;;6.60;99.90;;;;;;5301635;26;19938;-78
2024/04/16 00:41:13;;;;;;;;;;;6.60;99.90;;;;;;5383752;26;19936;-78
2024/04/16 00:43:38;;;;;;;;;;;6.50;99.90;;;;;;5353216;26;19936;-77
2024/04/16 00:46:04;;;;;;;;;;;6.50;99.90;;;;;;5346662;26;19930;-78
2024/04/16 00:48:30;;;;;;;;;;;6.50;99.90;;;;;;5289517;26;19934;-78
2024/04/16 00:50:56;;;;;;;;;;;6.60;99.90;;;;;;5318263;26;19930;-78
2024/04/16 00:53:22;;;;;;;;;;;6.50;99.90;;;;;;5303001;26;19942;-78
2024/04/16 00:55:48;;;;;;;;;;;6.50;99.90;;;;;;5329333;26;19945;-79
2024/04/16 00:58:15;;;;;;;;;;;6.60;99.90;;;;;;5320816;26;19999;-79
2024/04/16 01:00:41;;;;;;;;;;;6.50;99.90;;;;;;5294778;26;19930;-78
2024/04/16 01:03:07;;;;;;;;;;;6.40;99.90;;;;;;5312194;26;20062;-78
2024/04/16 01:05:35;;;;;;;;;;;6.20;99.90;;;;;;5304687;26;19937;-79
2024/04/16 01:08:00;;;;;;;;;;;6.40;99.90;;;;;;5337594;26;19938;-79
2024/04/16 01:10:26;;;;;;;;;;;6.40;99.90;;;;;;5348649;26;19996;-79
2024/04/16 01:12:52;;;;;;;;;;;6.40;99.90;;;;;;5339367;26;20373;-79
2024/04/16 01:15:18;;;;;;;;;;;6.40;99.90;;;;;;5289139;26;19930;-79
2024/04/16 01:17:43;;;;;;;;;;;6.40;99.90;;;;;;5317827;26;19996;-79
2024/04/16 01:20:09;;;;;;;;;;;6.40;99.90;;;;;;5293562;26;19995;-79
2024/04/16 01:22:35;;;;;;;;;;;6.40;99.90;;;;;;5290524;26;19936;-79
2024/04/16 01:25:01;;;;;;;;;;;6.40;99.90;;;;;;5301461;26;19997;-77
2024/04/16 01:27:26;;;;;;;;;;;6.40;99.90;;;;;;5290219;26;19938;-79
2024/04/16 01:29:52;;;;;;;;;;;6.50;99.90;;;;;;5352316;26;19936;-80
2024/04/16 01:32:20;;;;;;;;;;;6.40;99.90;;;;;;5289536;26;20353;-79
2024/04/16 01:34:45;;;;;;;;;;;6.40;99.90;;;;;;5352660;26;19929;-79
2024/04/16 01:37:11;;;;;;;;;;;6.40;99.90;;;;;;5291167;26;20000;-79
2024/04/16 01:39:36;;;;;;;;;;;6.40;99.90;;;;;;5346018;26;19962;-78
2024/04/16 01:42:02;;;;;;;;;;;6.40;99.90;;;;;;5309853;26;20243;-79
2024/04/16 01:44:29;;;;;;;;;;;6.40;99.90;;;;;;5266265;26;20342;-79
2024/04/16 01:46:55;;;;;;;;;;;6.30;99.90;;;;;;5261410;26;19938;-79
2024/04/16 01:49:20;;;;;;;;;;;6.30;99.90;;;;;;5289177;26;20005;-79
2024/04/16 01:51:46;;;;;;;;;;;6.30;99.90;;;;;;5330020;26;19958;-78
2024/04/16 01:54:11;;;;;;;;;;;6.30;99.90;;;;;;5322952;26;19930;-79
2024/04/16 01:56:38;;;;;;;;;;;6.40;99.90;;;;;;5352598;26;19929;-79
2024/04/16 01:59:04;;;;;;;;;;;6.40;99.90;;;;;;5317837;26;19942;-79
2024/04/16 02:01:30;;;;;;;;;;;6.40;99.90;;;;;;5339162;26;19936;-79
2024/04/16 02:03:56;;;;;;;;;;;6.40;99.90;;;;;;5345195;26;19934;-79
2024/04/16 02:06:21;;;;;;;;;;;6.40;99.90;;;;;;5346642;26;19934;-79
2024/04/16 02:08:47;;;;;;;;;;;6.40;99.90;;;;;;5317352;26;19995;-79
2024/04/16 02:11:13;;;;;;;;;;;6.40;99.90;;;;;;5324975;26;20050;-80
2024/04/16 02:13:38;;;;;;;;;;;6.40;99.90;;;;;;5352197;26;19936;-80
2024/04/16 02:16:04;;;;;;;;;;;6.40;99.90;;;;;;5317284;26;19934;-80
2024/04/16 02:18:30;;;;;;;;;;;6.30;99.90;;;;;;5317593;26;19930;-79
2024/04/16 02:20:55;;;;;;;;;;;6.30;99.90;;;;;;5287227;26;19981;-80
2024/04/16 02:23:21;;;;;;;;;;;6.20;99.90;;;;;;5341573;26;19930;-79
2024/04/16 02:25:52;;;;;;;;;;;6.20;99.90;;;;;;5289054;26;19962;-80
2024/04/16 02:28:17;;;;;;;;;;;6.20;99.90;;;;;;5280764;26;19930;-80
2024/04/16 02:30:43;;;;;;;;;;;6.20;99.90;;;;;;5260171;26;19930;-79
2024/04/16 02:33:10;;;;;;;;;;;6.20;99.90;;;;;;5345024;26;19930;-80
2024/04/16 02:35:36;;;;;;;;;;;6.20;99.90;;;;;;5328827;26;19941;-80
2024/04/16 02:38:02;;;;;;;;;;;6.20;99.90;;;;;;5351731;26;19929;-79
2024/04/16 02:40:28;;;;;;;;;;;6.30;99.90;;;;;;5334029;26;19930;-79
2024/04/16 02:42:53;;;;;;;;;;;6.30;99.90;;;;;;5319978;26;19935;-80
2024/04/16 02:45:20;;;;;;;;;;;6.20;99.90;;;;;;5334702;26;19996;-80
2024/04/16 02:47:45;;;;;;;;;;;6.30;99.90;;;;;;5329267;26;19937;-80
2024/04/16 02:50:11;;;;;;;;;;;6.10;99.90;;;;;;5351314;26;19929;-79
2024/04/16 02:52:39;;;;;;;;;;;6.10;99.90;;;;;;5322747;26;19936;-80
2024/04/16 02:55:06;;;;;;;;;;;6.20;99.90;;;;;;5309945;26;19930;-80
2024/04/16 02:57:36;;;;;;;;;;;6.10;99.90;;;;;;5318273;26;19936;-80
2024/04/16 03:00:02;;;;;;;;;;;6.10;99.90;;;;;;5341601;26;19936;-80
2024/04/16 03:02:28;;;;;;;;;;;6.10;99.90;;;;;;5341763;26;19942;-80
2024/04/16 03:04:54;;;;;;;;;;;6.10;99.90;;;;;;5338045;26;19961;-79
2024/04/16 03:07:20;;;;;;;;;;;6.10;99.90;;;;;;5365558;26;19937;-80
2024/04/16 03:09:48;;;;;;;;;;;6.10;99.90;;;;;;5288595;26;20995;-80
2024/04/16 03:12:14;;;;;;;;;;;6.10;99.90;;;;;;5341037;26;19937;-80
2024/04/16 03:14:39;;;;;;;;;;;6.10;99.90;;;;;;5312681;26;20310;-78
2024/04/16 03:17:05;;;;;;;;;;;6.00;99.90;;;;;;5351290;26;19934;-79
2024/04/16 03:19:30;;;;;;;;;;;6.00;99.90;;;;;;5328776;26;19937;-79
2024/04/16 03:21:58;;;;;;;;;;;5.90;99.90;;;;;;5317609;26;19930;-80
2024/04/16 03:24:24;;;;;;;;;;;5.90;99.90;;;;;;5288221;26;20247;-80
2024/04/16 03:26:50;;;;;;;;;;;5.80;99.90;;;;;;5329972;26;19941;-80
2024/04/16 03:29:15;;;;;;;;;;;5.80;99.90;;;;;;5294194;26;19930;-79
2024/04/16 03:31:41;;;;;;;;;;;5.90;99.90;;;;;;5293440;26;20000;-80
2024/04/16 03:34:07;;;;;;;;;;;5.90;99.90;;;;;;5315596;26;19934;-79
2024/04/16 03:36:33;;;;;;;;;;;5.80;99.90;;;;;;5328324;26;19930;-80
2024/04/16 03:38:59;;;;;;;;;;;5.80;99.90;;;;;;5306318;26;20568;-80
2024/04/16 03:41:24;;;;;;;;;;;5.90;99.90;;;;;;5310301;26;20447;-80
2024/04/16 03:43:50;;;;;;;;;;;5.90;99.90;;;;;;5368586;26;19930;-80
2024/04/16 03:46:18;;;;;;;;;;;5.90;99.90;;;;;;5310349;26;19930;-79
2024/04/16 03:48:44;;;;;;;;;;;5.90;99.90;;;;;;5315688;26;19937;-80
2024/04/16 03:51:09;;;;;;;;;;;5.90;99.90;;;;;;5316014;26;19938;-80
2024/04/16 03:53:35;;;;;;;;;;;6.00;99.90;;;;;;5260419;26;19942;-79
2024/04/16 03:56:00;;;;;;;;;;;5.90;99.90;;;;;;5335810;26;19962;-79
2024/04/16 03:58:26;;;;;;;;;;;6.00;99.90;;;;;;5345434;26;19942;-79
2024/04/16 04:01:07;;;;;;;;;;;6.00;99.90;;;;;;5316160;26;19930;-79
2024/04/16 04:03:33;;;;;;;;;;;6.00;99.90;;;;;;5266345;26;20433;-79
2024/04/16 04:05:59;;;;;;;;;;;6.00;99.90;;;;;;5287203;26;19942;-79
2024/04/16 04:08:25;;;;;;;;;;;6.00;99.90;;;;;;5305793;26;19930;-79
2024/04/16 04:10:53;;;;;;;;;;;6.00;99.90;;;;;;5315972;26;19957;-79
2024/04/16 04:13:19;;;;;;;;;;;6.00;99.90;;;;;;5293178;26;20498;-79
2024/04/16 04:15:44;;;;;;;;;;;6.00;99.90;;;;;;5301949;26;19961;-78
2024/04/16 04:18:10;;;;;;;;;;;6.00;99.90;;;;;;5350690;26;19995;-79
2024/04/16 04:20:39;;;;;;;;;;;6.00;99.90;;;;;;5321059;26;19930;-79
2024/04/16 04:23:05;;;;;;;;;;;6.10;99.90;;;;;;5288240;26;20338;-80
2024/04/16 04:25:31;;;;;;;;;;;6.10;99.90;;;;;;5276222;26;19934;-79
2024/04/16 04:27:56;;;;;;;;;;;6.10;99.90;;;;;;5316070;26;19972;-79
2024/04/16 04:30:25;;;;;;;;;;;6.20;99.90;;;;;;5301933;26;20536;-79
2024/04/16 04:32:51;;;;;;;;;;;6.20;99.90;;;;;;5315015;26;20333;-80
2024/04/16 04:35:17;;;;;;;;;;;6.20;99.90;;;;;;5292978;26;19938;-80
2024/04/16 04:37:42;;;;;;;;;;;6.20;99.90;;;;;;5315605;26;20725;-80
2024/04/16 04:40:08;;;;;;;;;;;6.20;99.90;;;;;;5315719;26;19938;-81
2024/04/16 04:42:34;;;;;;;;;;;6.30;99.90;;;;;;5322736;26;20087;-80
2024/04/16 04:45:01;;;;;;;;;;;6.30;99.90;;;;;;5324693;26;19930;-80
2024/04/16 04:47:27;;;;;;;;;;;6.30;99.90;;;;;;5349149;26;19930;-80
2024/04/16 04:49:53;;;;;;;;;;;6.30;99.90;;;;;;5335497;26;19937;-80
2024/04/16 04:52:19;;;;;;;;;;;6.30;99.90;;;;;;5319808;26;19937;-79
2024/04/16 04:54:45;;;;;;;;;;;6.40;99.90;;;;;;5319760;26;19937;-80
2024/04/16 04:57:10;;;;;;;;;;;6.30;99.90;;;;;;5322447;26;20346;-80
2024/04/16 04:59:39;;;;;;;;;;;6.30;99.90;;;;;;5322100;26;19930;-79
2024/04/16 05:02:09;;;;;;;;;;;6.30;99.90;;;;;;5297347;26;19936;-80
2024/04/16 05:04:38;;;;;;;;;;;6.20;99.90;;;;;;5290120;26;20279;-80
2024/04/16 05:07:03;;;;;;;;;;;6.40;99.90;;;;;;5293571;26;19937;-80
2024/04/16 05:09:29;;;;;;;;;;;6.40;99.90;;;;;;5295969;26;19930;-80
2024/04/16 05:11:57;;;;;;;;;;;6.20;99.90;;;;;;5329660;26;20006;-81
2024/04/16 05:14:25;;;;;;;;;;;6.40;99.90;;;;;;5327932;26;19937;-80
2024/04/16 05:16:51;;;;;;;;;;;6.40;99.90;;;;;;5324986;26;19937;-80
2024/04/16 05:19:16;;;;;;;;;;;6.40;99.90;;;;;;5321181;26;19937;-80
2024/04/16 05:21:42;;;;;;;;;;;6.40;99.90;;;;;;5291193;26;19937;-79
2024/04/16 05:24:09;;;;;;;;;;;6.50;99.90;;;;;;5312982;26;19930;-80
2024/04/16 05:26:36;;;;;;;;;;;6.50;99.90;;;;;;5325131;26;20479;-80
2024/04/16 05:29:02;;;;;;;;;;;6.50;99.90;;;;;;5294508;26;19933;-80
2024/04/16 05:31:28;;;;;;;;;;;6.50;99.90;;;;;;5293752;26;19939;-80
2024/04/16 05:33:53;;;;;;;;;;;6.50;99.90;;;;;;5325905;26;20308;-80
2024/04/16 05:36:19;;;;;;;;;;;6.60;99.90;;;;;;5296503;26;20022;-80
2024/04/16 05:38:46;;;;;;;;;;;6.50;99.90;;;;;;5298637;26;19929;-80
2024/04/16 05:41:12;;;;;;;;;;;6.50;99.90;;;;;;5321020;26;19930;-79
2024/04/16 05:43:40;;;;;;;;;;;6.60;99.90;;;;;;5292656;26;19930;-79
2024/04/16 05:46:06;;;;;;;;;;;6.50;99.90;;;;;;5293112;26;19929;-79
2024/04/16 05:48:32;;;;;;;;;;;6.50;99.90;;;;;;5292041;26;19936;-80
2024/04/16 05:50:58;;;;;;;;;;;6.50;99.90;;;;;;5306301;26;19929;-79
2024/04/16 05:53:23;;;;;;;;;;;6.60;99.90;;;;;;5319918;26;19966;-79
2024/04/16 05:55:49;;;;;;;;;;;6.60;99.90;;;;;;5300708;26;20266;-79
2024/04/16 05:58:15;;;;;;;;;;;6.60;99.90;;;;;;5320446;26;19937;-79
2024/04/16 06:00:41;;;;;;;;;;;6.60;99.90;;;;;;5268388;26;20254;-79
2024/04/16 06:03:08;;;;;;;;;;;6.70;99.90;;;;;;5321409;26;19930;-79
2024/04/16 06:05:34;;;;;;;;;;;6.70;99.90;;;;;;5350199;26;19929;-80
2024/04/16 06:08:00;;;;;;;;;;;6.80;99.90;;;;;;5326450;26;19929;-79
2024/04/16 06:10:26;;;;;;;;;;;6.80;99.90;;;;;;5294422;26;19937;-80
2024/04/16 06:12:51;;;;;;;;;;;6.90;99.90;;;;;;5315029;26;19930;-79
2024/04/16 06:15:17;;;;;;;;;;;6.90;99.90;;;;;;5321411;26;20342;-79
2024/04/16 06:17:44;;;;;;;;;;;6.90;99.90;;;;;;5317455;26;19949;-79
2024/04/16 06:20:09;;;;;;;;;;;6.90;99.90;;;;;;5320877;26;19930;-79
2024/04/16 06:22:35;;;;;;;;;;;6.90;99.90;;;;;;5293008;26;19936;-79
2024/04/16 06:25:01;;;;;;;;;;;6.90;99.90;;;;;;5343605;26;19930;-79
2024/04/16 06:27:27;;;;;;;;;;;7.00;99.90;;;;;;5326558;26;19930;-79
2024/04/16 06:29:52;;;;;;;;;;;7.00;99.90;;;;;;5292376;26;20512;-79
2024/04/16 06:32:19;;;;;;;;;;;7.00;99.90;;;;;;5340098;26;19965;-79
2024/04/16 06:34:45;;;;;;;;;;;7.00;99.90;;;;;;5318941;26;19930;-79
2024/04/16 06:37:11;;;;;;;;;;;7.00;99.90;;;;;;5316938;26;19930;-78
2024/04/16 06:39:36;;;;;;;;;;;7.00;99.90;;;;;;5290105;26;19930;-79
2024/04/16 06:42:04;;;;;;;;;;;7.20;99.90;;;;;;5315927;26;19933;-79
2024/04/16 06:44:30;;;;;;;;;;;7.20;99.90;;;;;;5302490;26;20332;-79
2024/04/16 06:46:56;;;;;;;;;;;7.30;99.90;;;;;;5316325;26;19937;-79
2024/04/16 06:49:22;;;;;;;;;;;7.30;99.90;;;;;;5318787;26;20270;-79
2024/04/16 06:51:48;;;;;;;;;;;7.30;99.90;;;;;;5306738;26;20253;-79
2024/04/16 06:54:15;;;;;;;;;;;7.40;99.90;;;;;;5324592;26;20493;-78
2024/04/16 06:56:42;;;;;;;;;;;7.40;99.90;;;;;;5294700;26;20318;-79
2024/04/16 06:59:07;;;;;;;;;;;7.40;99.90;;;;;;5380266;26;19930;-79
2024/04/16 07:01:33;;;;;;;;;;;7.50;99.90;;;;;;5315256;26;19930;-79
2024/04/16 07:04:02;;;;;;;;;;;7.50;99.90;;;;;;5317715;26;19938;-79
2024/04/16 07:06:28;;;;;;;;;;;7.50;99.90;;;;;;5287865;26;19938;-79
2024/04/16 07:08:53;;;;;;;;;;;7.50;99.90;;;;;;5289392;26;19937;-79
2024/04/16 07:11:19;;;;;;;;;;;7.60;99.90;;;;;;5289821;26;19930;-79
2024/04/16 07:13:45;;;;;;;;;;;7.60;99.90;;;;;;5326714;26;20350;-79
2024/04/16 07:16:11;;;;;;;;;;;7.70;99.90;;;;;;5261482;26;19946;-79
2024/04/16 07:18:36;;;;;;;;;;;7.60;99.90;;;;;;5289259;26;19957;-79
2024/04/16 07:21:02;;;;;;;;;;;7.60;99.90;;;;;;5288955;26;19937;-78
2024/04/16 07:23:28;;;;;;;;;;;7.60;99.90;;;;;;5369986;26;19929;-79
2024/04/16 07:25:53;;;;;;;;;;;7.60;99.90;;;;;;5347997;26;19934;-78
2024/04/16 07:28:19;;;;;;;;;;;7.50;99.90;;;;;;5347401;26;19930;-79
2024/04/16 07:30:45;;;;;;;;;;;7.50;99.90;;;;;;5314941;26;19958;-79
2024/04/16 07:33:10;;;;;;;;;;;7.60;99.90;;;;;;5317581;26;19929;-79
2024/04/16 07:35:38;;;;;;;;;;;7.60;99.90;;;;;;5323299;26;19937;-79
2024/04/16 07:38:06;;;;;;;;;;;7.60;99.90;;;;;;5288825;26;19962;-79
2024/04/16 07:40:32;;;;;;;;;;;7.50;99.90;;;;;;5314973;26;19930;-79
2024/04/16 07:42:57;;;;;;;;;;;7.50;99.90;;;;;;5337077;26;19937;-79
2024/04/16 07:45:23;;;;;;;;;;;7.60;99.90;;;;;;5290155;26;19929;-79
2024/04/16 07:47:50;;;;;;;;;;;7.50;99.90;;;;;;5315818;26;19930;-79
2024/04/16 07:50:16;;;;;;;;;;;7.50;99.90;;;;;;5287194;26;20667;-79
2024/04/16 07:52:41;;;;;;;;;;;7.50;99.90;;;;;;5352982;26;19931;-79
2024/04/16 07:55:07;;;;;;;;;;;7.40;99.90;;;;;;5316653;26;19941;-78
2024/04/16 07:57:33;;;;;;;;;;;7.50;99.90;;;;;;5304193;26;19997;-77
2024/04/16 07:59:58;;;;;;;;;;;7.40;99.90;;;;;;5327347;26;20270;-79
2024/04/16 08:02:26;;;;;;;;;;;7.30;99.90;;;;;;5344073;26;19941;-79
2024/04/16 08:04:52;;;;;;;;;;;7.10;99.90;;;;;;5316489;26;19930;-79
2024/04/16 08:07:18;;;;;;;;;;;7.10;99.90;;;;;;5310033;26;20347;-79
2024/04/16 08:09:43;;;;;;;;;;;7.10;99.90;;;;;;5316735;26;20638;-79
2024/04/16 08:12:09;;;;;;;;;;;7.10;99.90;;;;;;5316338;26;20362;-78
2024/04/16 08:14:35;;;;;;;;;;;7.00;99.90;;;;;;5304773;26;19941;-78
2024/04/16 08:17:01;;;;;;;;;;;7.20;99.90;;;;;;5287300;26;20005;-79
2024/04/16 08:19:27;;;;;;;;;;;7.20;99.90;;;;;;5319098;26;19930;-78
2024/04/16 08:21:52;;;;;;;;;;;7.30;99.90;;;;;;5349349;26;20254;-78
2024/04/16 08:24:18;;;;;;;;;;;7.30;99.90;;;;;;5319403;26;19997;-78
2024/04/16 08:26:46;;;;;;;;;;;7.40;99.90;;;;;;5262194;26;19930;-78
2024/04/16 08:29:12;;;;;;;;;;;7.40;99.90;;;;;;5318540;26;19996;-77
2024/04/16 08:31:38;;;;;;;;;;;7.40;99.90;;;;;;5342015;26;19969;-78
2024/04/16 08:34:04;;;;;;;;;;;7.40;99.90;;;;;;5324991;26;20260;-77
2024/04/16 08:36:30;;;;;;;;;;;7.40;99.90;;;;;;5346400;26;19940;-77
2024/04/16 08:39:00;;;;;;;;;;;7.40;99.90;;;;;;5333846;26;19936;-78
2024/04/16 08:41:26;;;;;;;;;;;7.50;99.90;;;;;;5353580;26;20333;-78
2024/04/16 08:43:52;;;;;;;;;;;7.40;99.90;;;;;;5319612;26;20622;-75
2024/04/16 08:46:18;;;;;;;;;;;7.50;99.90;;;;;;5290158;26;19941;-77
2024/04/16 08:48:44;;;;;;;;;;;7.40;99.90;;;;;;5289542;26;19938;-77
2024/04/16 08:51:12;;;;;;;;;;;7.50;99.90;;;;;;5319303;26;19934;-77
2024/04/16 08:53:42;;;;;;;;;;;7.40;99.90;;;;;;5291095;26;19931;-77
2024/04/16 08:56:08;;;;;;;;;;;7.50;99.90;;;;;;5323080;26;20271;-77
2024/04/16 08:58:34;;;;;;;;;;;7.60;99.90;;;;;;5318732;26;19937;-78
2024/04/16 09:01:00;;;;;;;;;;;7.60;99.90;;;;;;5338122;26;19936;-78
2024/04/16 09:03:26;;;;;;;;;;;7.60;99.90;;;;;;5347911;26;20376;-76
2024/04/16 09:05:52;;;;;;;;;;;7.60;99.90;;;;;;5262165;26;20666;-77
2024/04/16 09:08:18;;;;;;;;;;;7.60;99.90;;;;;;5342156;26;19934;-79
2024/04/16 09:10:44;;;;;;;;;;;7.80;99.90;;;;;;5319021;26;19957;-77
2024/04/16 09:13:12;;;;;;;;;;;7.80;99.90;;;;;;5290265;26;20257;-77
2024/04/16 09:15:40;;;;;;;;;;;7.90;99.90;;;;;;5352014;26;20000;-78
2024/04/16 09:18:06;;;;;;;;;;;8.00;99.90;;;;;;5321927;26;19949;-78
2024/04/16 09:20:33;;;;;;;;;;;8.20;99.90;;;;;;5319703;26;20013;-78
2024/04/16 09:23:00;;;;;;;;;;;8.10;99.90;;;;;;5306005;26;19942;-78
2024/04/16 09:25:26;;;;;;;;;;;8.30;99.90;;;;;;5318093;26;19930;-78
2024/04/16 09:27:52;;;;;;;;;;;8.30;99.90;;;;;;5285560;26;19930;-78
2024/04/16 09:30:18;;;;;;;;;;;8.10;99.90;;;;;;5352046;26;19930;-77
2024/04/16 09:32:46;;;;;;;;;;;8.30;99.90;;;;;;5338002;26;19958;-77
2024/04/16 09:35:15;;;;;;;;;;;8.30;99.90;;;;;;5319386;26;20643;-78
2024/04/16 09:37:41;;;;;;;;;;;8.30;99.90;;;;;;5262957;26;19940;-77
2024/04/16 09:40:07;;;;;;;;;;;8.40;99.90;;;;;;5306912;26;19930;-77
2024/04/16 09:42:33;;;;;;;;;;;8.40;99.90;;;;;;5347591;26;20353;-77
2024/04/16 09:45:00;;;;;;;;;;;8.50;99.90;;;;;;5290177;26;19937;-77
2024/04/16 09:47:27;;;;;;;;;;;8.50;99.90;;;;;;5290552;26;19937;-77
2024/04/16 09:49:55;;;;;;;;;;;8.60;99.90;;;;;;5309596;26;19944;-78
2024/04/16 09:52:21;;;;;;;;;;;8.70;99.90;;;;;;5292007;26;19934;-77
2024/04/16 09:54:48;;;;;;;;;;;8.80;99.90;;;;;;5290866;26;19996;-78
2024/04/16 09:57:14;;;;;;;;;;;8.90;99.90;;;;;;5318535;26;19968;-78
2024/04/16 09:59:41;;;;;;;;;;;9.00;99.90;;;;;;5291344;26;19945;-77
2024/04/16 10:02:11;;;;;;;;;;;9.30;99.90;;;;;;5319265;26;20381;-78
2024/04/16 10:04:39;;;;;;;;;;;9.40;99.90;;;;;;5290728;26;19936;-78
2024/04/16 10:07:05;;;;;;;;;;;9.30;99.90;;;;;;5318856;26;20451;-76
2024/04/16 10:09:32;;;;;;;;;;;9.20;99.90;;;;;;5290677;26;19937;-76
2024/04/16 10:12:00;;;;;;;;;;;9.20;99.90;;;;;;5285897;26;19929;-77
2024/04/16 10:14:26;;;;;;;;;;;9.20;99.90;;;;;;5325284;26;19937;-78
2024/04/16 10:16:55;;;;;;;;;;;9.30;99.90;;;;;;5296772;26;19931;-77
2024/04/16 10:19:21;;;;;;;;;;;9.10;99.90;;;;;;5318433;26;19930;-77
2024/04/16 10:21:50;;;;;;;;;;;8.90;99.90;;;;;;5327695;26;20251;-78
2024/04/16 10:24:18;;;;;;;;;;;9.30;99.90;;;;;;5289777;26;19937;-78
2024/04/16 10:26:47;;;;;;;;;;;9.30;99.90;;;;;;5290415;26;19937;-77
2024/04/16 10:29:13;;;;;;;;;;;9.30;99.90;;;;;;5309825;27;19934;-77
2024/04/16 10:31:40;;;;;;;;;;;9.30;99.90;;;;;;5256611;27;20298;-77
2024/04/16 10:34:06;;;;;;;;;;;9.30;99.90;;;;;;5291200;27;19937;-78
2024/04/16 10:36:32;;;;;;;;;;;9.30;99.90;;;;;;5283563;27;19935;-79
2024/04/16 10:39:20;;;;;;;;;;;9.30;99.90;;;;;;5255131;27;19989;-79
2024/04/16 10:41:50;;;;;;;;;;;9.30;99.90;;;;;;5287974;26;19942;-78
2024/04/16 10:44:16;;;;;;;;;;;9.30;99.90;;;;;;5273866;27;19938;-79
2024/04/16 10:46:47;;;;;;;;;;;9.40;99.90;;;;;;5255206;27;19941;-79
2024/04/16 10:49:13;;;;;;;;;;;9.30;99.90;;;;;;5284132;27;20335;-80
2024/04/16 10:51:42;;;;;;;;;;;9.50;99.90;;;;;;5281273;27;19937;-79
2024/04/16 10:54:08;;;;;;;;;;;9.50;99.90;;;;;;5276843;26;19962;-79
2024/04/16 10:56:38;;;;;;;;;;;9.40;99.90;;;;;;5306068;26;20013;-80
2024/04/16 10:59:05;;;;;;;;;;;9.50;99.90;;;;;;5306774;26;19931;-80
2024/04/16 11:01:30;;;;;;;;;;;9.40;99.90;;;;;;5241635;27;19938;-81
2024/04/16 11:04:04;;;;;;;;;;;9.50;99.90;;;;;;5290776;26;19930;-80
2024/04/16 11:06:30;;;;;;;;;;;9.50;99.90;;;;;;5274050;27;19942;-80
2024/04/16 11:08:56;;;;;;;;;;;9.50;99.90;;;;;;5267296;27;20343;-80
2024/04/16 11:11:22;;;;;;;;;;;9.50;99.90;;;;;;5294895;26;19954;-81
2024/04/16 11:13:48;;;;;;;;;;;9.40;99.90;;;;;;5295659;26;19994;-80
2024/04/16 11:16:16;;;;;;;;;;;9.40;99.90;;;;;;5295079;26;19938;-81
2024/04/16 11:18:43;;;;;;;;;;;9.50;99.90;;;;;;5287193;27;19931;-81
2024/04/16 11:21:09;;;;;;;;;;;9.50;99.90;;;;;;5319431;26;20717;-79
2024/04/16 11:23:35;;;;;;;;;;;9.50;99.90;;;;;;5293363;26;19937;-80
2024/04/16 11:26:00;;;;;;;;;;;9.60;99.90;;;;;;5312161;27;19942;-79
2024/04/16 11:28:26;;;;;;;;;;;9.70;99.90;;;;;;5346876;26;19930;-80
2024/04/16 11:30:55;;;;;;;;;;;9.80;99.90;;;;;;5290010;26;19939;-81
2024/04/16 11:33:23;;;;;;;;;;;10.00;99.90;;;;;;5318401;26;19932;-81
2024/04/16 11:35:49;;;;;;;;;;;9.90;99.90;;;;;;5296017;26;19935;-79
2024/04/16 11:38:19;;;;;;;;;;;9.80;99.90;;;;;;5306951;27;19931;-80
2024/04/16 11:40:45;;;;;;;;;;;9.80;99.90;;;;;;5262940;26;19937;-80
2024/04/16 11:43:12;;;;;;;;;;;9.90;99.90;;;;;;5295829;26;19938;-81
2024/04/16 11:45:38;;;;;;;;;;;9.90;99.90;;;;;;5316062;27;19938;-80
2024/04/16 11:48:05;;;;;;;;;;;9.90;99.90;;;;;;5234221;27;19967;-80
2024/04/16 11:50:30;;;;;;;;;;;9.90;99.90;;;;;;5261166;27;19935;-81
2024/04/16 11:52:56;;;;;;;;;;;10.00;99.90;;;;;;5262317;26;19937;-81
2024/04/16 11:55:22;;;;;;;;;;;10.00;99.90;;;;;;5297829;26;19940;-81
2024/04/16 11:57:47;;;;;;;;;;;10.00;99.90;;;;;;5359410;26;19930;-81
2024/04/16 12:00:13;;;;;;;;;;;10.10;99.90;;;;;;5298931;26;19941;-81
2024/04/16 12:02:40;;;;;;;;;;;10.00;99.90;;;;;;5272709;26;19997;-81
2024/04/16 12:05:08;;;;;;;;;;;10.10;99.90;;;;;;5300902;26;19930;-80
2024/04/16 12:07:36;;;;;;;;;;;10.10;99.90;;;;;;5271273;26;20351;-80
2024/04/16 12:10:02;;;;;;;;;;;10.10;99.90;;;;;;5292570;26;19934;-79
2024/04/16 12:12:28;;;;;;;;;;;10.10;99.90;;;;;;5303891;27;19941;-79
2024/04/16 12:14:55;;;;;;;;;;;9.90;99.90;;;;;;5313826;26;19931;-79
2024/04/16 12:17:24;;;;;;;;;;;9.70;99.90;;;;;;5325059;26;19940;-79
2024/04/16 12:19:50;;;;;;;;;;;9.70;99.90;;;;;;5286309;27;19935;-79
2024/04/16 12:22:16;;;;;;;;;;;9.80;99.90;;;;;;5291851;27;20265;-79
2024/04/16 12:24:41;;;;;;;;;;;9.80;99.90;;;;;;5278548;26;19930;-79
2024/04/16 12:27:08;;;;;;;;;;;9.70;99.90;;;;;;5297311;26;19930;-80
2024/04/16 12:29:34;;;;;;;;;;;9.90;99.90;;;;;;5297758;26;19937;-79
2024/04/16 12:31:59;;;;;;;;;;;10.00;99.90;;;;;;5277987;27;19931;-79
2024/04/16 12:34:27;;;;;;;;;;;10.20;99.90;;;;;;5295084;26;19937;-79
2024/04/16 12:36:53;;;;;;;;;;;10.30;99.90;;;;;;5293487;27;20318;-79
2024/04/16 12:39:19;;;;;;;;;;;10.50;99.90;;;;;;5263739;27;20359;-80
2024/04/16 12:41:45;;;;;;;;;;;10.50;99.90;;;;;;5277554;27;19930;-79
2024/04/16 12:44:10;;;;;;;;;;;10.60;99.90;;;;;;5320289;26;19937;-79
2024/04/16 12:46:36;;;;;;;;;;;10.60;99.90;;;;;;5262991;27;19930;-79
2024/04/16 12:49:02;;;;;;;;;;;10.60;99.90;;;;;;5245281;26;19972;-79
2024/04/16 12:51:28;;;;;;;;;;;10.70;99.90;;;;;;5291836;27;19930;-79
2024/04/16 12:53:56;;;;;;;;;;;10.70;99.90;;;;;;5279218;27;19934;-79
2024/04/16 12:56:22;;;;;;;;;;;10.70;99.90;;;;;;5292819;27;19930;-79
2024/04/16 12:58:50;;;;;;;;;;;10.70;99.90;;;;;;5295297;27;19930;-80
2024/04/16 13:01:16;;;;;;;;;;;10.60;99.90;;;;;;5299774;26;20432;-80
2024/04/16 13:03:41;;;;;;;;;;;10.60;99.90;;;;;;5327919;26;19930;-80
2024/04/16 13:06:08;;;;;;;;;;;10.40;99.90;;;;;;5295383;26;19937;-81
2024/04/16 13:08:37;;;;;;;;;;;10.10;99.90;;;;;;5287664;26;20311;-79
2024/04/16 13:11:03;;;;;;;;;;;9.90;99.90;;;;;;5267989;26;19958;-80
2024/04/16 13:13:30;;;;;;;;;;;9.90;99.90;;;;;;5261569;27;19938;-80
2024/04/16 13:15:59;;;;;;;;;;;9.90;99.90;;;;;;5269500;27;19938;-80
2024/04/16 13:18:25;;;;;;;;;;;9.90;99.90;;;;;;5239811;27;19938;-79
2024/04/16 13:20:58;;;;;;;;;;;10.10;99.90;;;;;;5281925;27;19935;-79
2024/04/16 13:23:26;;;;;;;;;;;10.50;99.90;;;;;;5288231;27;19938;-79
2024/04/16 13:25:52;;;;;;;;;;;10.80;99.90;;;;;;5263918;27;19941;-79
2024/04/16 13:28:36;;;;;;;;;;;11.30;99.90;;;;;;5267472;27;19934;-79
2024/04/16 13:31:15;;;;;;;;;;;11.50;99.90;;;;;;5286656;27;19931;-79
2024/04/16 13:33:46;;;;;;;;;;;11.80;99.90;;;;;;5286548;27;20326;-79
2024/04/16 13:36:16;;;;;;;;;;;12.20;99.90;;;;;;5250025;27;19937;-79
2024/04/16 13:38:44;;;;;;;;;;;12.50;99.90;;;;;;5230423;27;20706;-79
2024/04/16 13:41:17;;;;;;;;;;;12.50;99.90;;;;;;5269718;27;19963;-79
2024/04/16 13:43:45;;;;;;;;;;;12.80;99.90;;;;;;5319521;26;19937;-79
2024/04/16 13:46:13;;;;;;;;;;;12.90;99.90;;;;;;5291283;26;19938;-79
2024/04/16 13:48:49;;;;;;;;;;;12.60;99.90;;;;;;5284804;27;19931;-79
2024/04/16 13:51:18;;;;;;;;;;;12.70;99.90;;;;;;5284935;27;19930;-79
2024/04/16 13:53:44;;;;;;;;;;;12.70;99.90;;;;;;5284129;27;19937;-79
2024/04/16 13:56:17;;;;;;;;;;;12.00;99.90;;;;;;5256515;27;19938;-79
2024/04/16 13:58:45;;;;;;;;;;;11.90;99.90;;;;;;5287181;27;19931;-78
2024/04/16 14:01:19;;;;;;;;;;;11.70;99.90;;;;;;5259616;26;20001;-79
2024/04/16 14:03:47;;;;;;;;;;;11.70;99.90;;;;;;5258377;27;19931;-79
2024/04/16 14:06:15;;;;;;;;;;;11.60;99.90;;;;;;5256281;27;19934;-79
2024/04/16 14:08:46;;;;;;;;;;;11.60;99.90;;;;;;5284846;26;19930;-79
2024/04/16 14:11:16;;;;;;;;;;;11.50;99.90;;;;;;5253467;26;19967;-79
2024/04/16 14:13:41;;;;;;;;;;;11.50;99.90;;;;;;5317790;26;19957;-78
2024/04/16 14:16:08;;;;;;;;;;;11.70;99.90;;;;;;5263302;26;19976;-79
2024/04/16 14:18:53;;;;;;;;;;;11.70;99.90;;;;;;5290560;26;20349;-80
2024/04/16 14:21:23;;;;;;;;;;;11.60;99.90;;;;;;5292645;26;20301;-79
2024/04/16 14:23:54;;;;;;;;;;;11.60;99.90;;;;;;5310435;26;19930;-78
2024/04/16 14:26:24;;;;;;;;;;;11.50;99.90;;;;;;5291730;26;19936;-78